Time;durP1;ratioP1;P1;durP2;ratioP2;P2;SDS_P1;SDS_P2;PMS_P1;PMS_P2;Temp;Humidity;BMP_temperature;BMP_pressure;BME280_temperature;BME280_humidity;BME280_pressure;Samples;Min_cycle;Max_cycle;Signal;HPM_P1;HPM_P2
2021/04/20 00:02:11;;;;;;;37.30;28.38;;;;;;;5.19;83.42;101819.25;5261925;28;20037;-69
2021/04/20 00:04:42;;;;;;;40.90;29.08;;;;;;;5.13;83.72;101828.19;5243716;28;20104;-71
2021/04/20 00:07:14;;;;;;;37.20;28.70;;;;;;;5.09;83.39;101826.66;5243121;28;20042;-69
2021/04/20 00:09:45;;;;;;;39.33;30.27;;;;;;;5.07;83.63;101818.06;5258328;28;20032;-70
2021/04/20 00:12:17;;;;;;;40.92;30.63;;;;;;;5.02;83.13;101809.66;5260459;28;20048;-69
2021/04/20 00:14:48;;;;;;;37.80;30.27;;;;;;;5.05;84.28;101814.72;5260224;28;20025;-69
2021/04/20 00:17:19;;;;;;;37.78;29.63;;;;;;;5.02;83.64;101814.88;5242140;28;20123;-68
2021/04/20 00:19:50;;;;;;;40.45;29.92;;;;;;;5.03;83.76;101819.13;5260102;28;20037;-69
2021/04/20 00:22:22;;;;;;;45.20;31.90;;;;;;;5.04;84.83;101802.66;5261381;28;20431;-68
2021/04/20 00:24:53;;;;;;;40.13;29.77;;;;;;;4.99;84.04;101810.63;5257428;28;20040;-68
2021/04/20 00:27:24;;;;;;;39.38;28.85;;;;;;;5.05;84.32;101814.72;5258559;28;20051;-70
2021/04/20 00:29:56;;;;;;;38.35;30.60;;;;;;;5.02;83.84;101807.91;5261549;28;20136;-68
2021/04/20 00:32:27;;;;;;;37.17;29.27;;;;;;;5.08;83.60;101810.25;5261188;28;20032;-68
2021/04/20 00:34:59;;;;;;;40.72;31.58;;;;;;;4.99;83.96;101805.44;5258088;28;20035;-68
2021/04/20 00:37:30;;;;;;;37.83;29.13;;;;;;;5.01;83.86;101805.41;5256470;28;20029;-68
2021/04/20 00:40:04;;;;;;;43.45;29.48;;;;;;;4.98;83.45;101803.78;5242317;28;20044;-68
2021/04/20 00:42:56;;;;;;;37.25;29.02;;;;;;;5.07;83.86;101799.91;5260645;28;20025;-68
2021/04/20 00:45:30;;;;;;;36.67;29.00;;;;;;;4.98;83.11;101802.94;5254838;28;20098;-67
2021/04/20 00:48:03;;;;;;;38.45;30.02;;;;;;;4.87;83.34;101803.41;5259161;28;20035;-68
2021/04/20 00:50:39;;;;;;;36.00;29.47;;;;;;;4.88;83.30;101805.09;5259487;28;20028;-68
2021/04/20 00:53:10;;;;;;;36.45;29.02;;;;;;;4.79;83.72;101808.97;5260342;28;20442;-68
2021/04/20 00:55:41;;;;;;;37.78;29.17;;;;;;;4.78;83.43;101802.09;5256621;28;20127;-68
2021/04/20 00:58:12;;;;;;;35.53;27.83;;;;;;;4.82;83.71;101808.00;5260584;28;20058;-68
2021/04/20 01:00:45;;;;;;;40.28;27.85;;;;;;;4.80;83.20;101807.19;5243632;28;20036;-68
2021/04/20 01:03:16;;;;;;;36.73;28.73;;;;;;;4.73;83.35;101795.41;5257668;28;20157;-69
2021/04/20 01:05:48;;;;;;;36.67;27.50;;;;;;;4.62;82.92;101801.06;5257873;28;20545;-68
2021/04/20 01:08:22;;;;;;;34.25;26.02;;;;;;;4.62;82.78;101799.34;5261033;28;20039;-68
2021/04/20 01:10:55;;;;;;;36.70;25.85;;;;;;;4.63;82.81;101797.59;5260384;28;20035;-69
2021/04/20 01:13:28;;;;;;;;;;;;;;;4.90;81.42;101799.84;5258568;28;20017;-69
2021/04/20 01:16:00;;;;;;;29.30;23.55;;;;;;;4.52;82.65;101800.66;5258315;28;19923;-68
2021/04/20 01:18:36;;;;;;;29.73;23.00;;;;;;;4.47;83.25;101797.44;5257273;28;20032;-69
2021/04/20 01:21:10;;;;;;;31.80;23.67;;;;;;;4.41;83.25;101797.69;5239362;28;20096;-70
2021/04/20 01:24:00;;;;;;;30.70;23.35;;;;;;;4.44;83.04;101784.59;5257686;28;20037;-70
2021/04/20 01:26:39;;;;;;;27.85;22.65;;;;;;;4.39;83.84;101794.31;5260003;28;20037;-69
2021/04/20 01:29:11;;;;;;;31.48;23.73;;;;;;;4.31;82.75;101796.41;5257041;28;20024;-68
2021/04/20 01:31:45;;;;;;;29.65;23.23;;;;;;;4.27;83.18;101784.47;5259277;28;20675;-68
2021/04/20 01:34:16;;;;;;;29.13;22.27;;;;;;;4.21;82.96;101787.34;5260205;28;20034;-70
2021/04/20 01:36:50;;;;;;;27.70;20.85;;;;;;;4.20;83.57;101785.63;5257740;28;20036;-67
2021/04/20 01:39:21;;;;;;;28.33;20.92;;;;;;;4.17;83.15;101784.03;5238838;28;20024;-69
2021/04/20 01:41:53;;;;;;;27.30;21.45;;;;;;;4.18;83.06;101790.06;5258384;28;20045;-68
2021/04/20 01:44:24;;;;;;;25.17;20.05;;;;;;;4.18;83.25;101782.28;5255679;28;20048;-68
2021/04/20 01:46:56;;;;;;;28.90;21.92;;;;;;;4.14;83.40;101785.00;5257725;28;20116;-68
2021/04/20 01:49:27;;;;;;;30.50;21.63;;;;;;;4.17;83.33;101786.63;5258912;28;20131;-69
2021/04/20 01:51:58;;;;;;;32.40;22.55;;;;;;;4.06;84.12;101781.06;5257982;28;20028;-67
2021/04/20 01:54:29;;;;;;;28.42;22.58;;;;;;;4.05;84.02;101782.81;5256628;28;20033;-68
2021/04/20 01:57:02;;;;;;;29.48;23.52;;;;;;;4.02;83.86;101772.56;5258013;28;20029;-70
2021/04/20 01:59:33;;;;;;;29.33;22.30;;;;;;;4.06;84.27;101773.28;5257829;28;20068;-67
2021/04/20 02:02:05;;;;;;;30.92;23.73;;;;;;;4.09;84.13;101778.31;5256651;28;20128;-68
2021/04/20 02:04:36;;;;;;;32.75;24.38;;;;;;;4.03;83.84;101776.84;5258431;28;20107;-68
2021/04/20 02:07:07;;;;;;;32.95;25.50;;;;;;;4.01;83.98;101768.28;5259910;28;20115;-69
2021/04/20 02:09:40;;;;;;;31.13;25.05;;;;;;;4.00;83.90;101765.75;5263742;28;20029;-68
2021/04/20 02:12:12;;;;;;;35.20;25.20;;;;;;;4.02;83.98;101766.53;5264391;28;20421;-68
2021/04/20 02:14:43;;;;;;;31.25;24.08;;;;;;;3.99;84.01;101775.28;5261480;28;20303;-67
2021/04/20 02:17:15;;;;;;;34.53;26.15;;;;;;;3.94;83.98;101772.06;5241734;28;20035;-68
2021/04/20 02:19:47;;;;;;;37.10;25.85;;;;;;;3.86;84.34;101768.91;5259919;28;20178;-68
2021/04/20 02:22:19;;;;;;;30.13;24.25;;;;;;;3.90;83.84;101773.06;5258158;28;20036;-68
2021/04/20 02:24:50;;;;;;;33.83;23.73;;;;;;;3.89;83.80;101768.78;5257184;28;20025;-68
2021/04/20 02:27:22;;;;;;;32.60;24.63;;;;;;;3.86;83.34;101769.78;5258250;28;20036;-67
2021/04/20 02:29:57;;;;;;;31.42;24.38;;;;;;;3.85;83.58;101762.06;5260705;28;20029;-68
2021/04/20 02:32:28;;;;;;;31.85;23.98;;;;;;;3.85;83.77;101756.88;5259711;28;20487;-68
2021/04/20 02:35:01;;;;;;;32.35;24.65;;;;;;;3.78;83.71;101764.06;5259983;28;20031;-67
2021/04/20 02:37:34;;;;;;;31.58;24.73;;;;;;;3.81;84.49;101752.72;5261431;28;20029;-69
2021/04/20 02:40:08;;;;;;;34.15;24.35;;;;;;;3.79;84.01;101767.47;5263368;28;20605;-69
2021/04/20 02:42:39;;;;;;;32.38;23.83;;;;;;;3.75;84.39;101763.34;5260652;28;20029;-69
2021/04/20 02:45:12;;;;;;;31.20;23.73;;;;;;;3.79;84.09;101762.31;5258635;28;20689;-68
2021/04/20 02:47:44;;;;;;;32.92;23.90;;;;;;;3.65;83.47;101753.38;5258725;28;20116;-69
2021/04/20 02:50:19;;;;;;;32.13;24.38;;;;;;;3.61;83.81;101764.75;5259696;28;20064;-68
2021/04/20 02:52:53;;;;;;;30.00;23.02;;;;;;;3.55;83.95;101765.00;5259470;28;20031;-68
2021/04/20 02:55:24;;;;;;;29.88;23.52;;;;;;;3.50;83.40;101768.69;5261278;28;20032;-68
2021/04/20 02:57:57;;;;;;;30.10;23.77;;;;;;;3.47;83.89;101763.63;5261569;28;20090;-68
2021/04/20 03:00:29;;;;;;;;;;;;;;;3.73;82.64;101767.75;5242298;28;20290;-68
2021/04/20 03:03:01;;;;;;;33.55;23.80;;;;;;;3.46;83.96;101764.56;5260219;28;20369;-69
2021/04/20 03:05:33;;;;;;;35.50;25.48;;;;;;;3.41;84.49;101768.16;5261310;28;20102;-69
2021/04/20 03:08:05;;;;;;;34.78;26.02;;;;;;;3.36;84.13;101759.72;5259357;28;20024;-67
2021/04/20 03:10:38;;;;;;;34.55;26.58;;;;;;;3.35;84.44;101760.63;5260538;28;20387;-68
2021/04/20 03:13:09;;;;;;;35.35;27.23;;;;;;;3.36;84.28;101753.69;5260483;28;20040;-68
2021/04/20 03:15:41;;;;;;;32.83;24.50;;;;;;;3.36;84.57;101756.28;5261487;28;20504;-67
2021/04/20 03:18:13;;;;;;;35.20;27.60;;;;;;;3.33;84.58;101759.88;5259444;28;20215;-68
2021/04/20 03:20:44;;;;;;;37.60;27.45;;;;;;;3.36;84.76;101749.34;5260320;28;20021;-68
2021/04/20 03:23:16;;;;;;;43.38;30.33;;;;;;;3.32;85.19;101750.38;5259855;28;20119;-68
2021/04/20 03:25:48;;;;;;;153.65;36.70;;;;;;;3.29;85.38;101749.66;5261433;28;20079;-68
2021/04/20 03:28:19;;;;;;;54.95;34.28;;;;;;;3.31;85.44;101747.88;5260996;28;20025;-69
2021/04/20 03:30:51;;;;;;;55.85;35.63;;;;;;;3.32;85.25;101745.22;5263012;28;20611;-67
2021/04/20 03:33:37;;;;;;;70.60;37.90;;;;;;;3.35;85.46;101739.91;5262095;28;20505;-67
2021/04/20 03:36:16;;;;;;;61.58;35.92;;;;;;;3.27;85.21;101733.38;5259248;28;20163;-69
2021/04/20 03:39:12;;;;;;;52.85;33.92;;;;;;;3.27;85.43;101741.97;5259056;28;20389;-68
2021/04/20 03:41:51;;;;;;;60.38;35.35;;;;;;;3.24;86.05;101736.06;5258167;28;20025;-69
2021/04/20 03:44:27;;;;;;;57.30;35.88;;;;;;;3.25;85.81;101740.34;5257972;28;20051;-69
2021/04/20 03:47:06;;;;;;;56.03;34.65;;;;;;;3.36;85.48;101735.56;5262353;28;20037;-68
2021/04/20 03:49:41;;;;;;;73.75;35.10;;;;;;;3.30;85.81;101743.59;5260292;28;21181;-68
2021/04/20 03:52:18;;;;;;;141.10;37.22;;;;;;;3.23;85.63;101745.59;5261084;28;20064;-69
2021/04/20 03:54:51;;;;;;;93.78;35.58;;;;;;;3.19;85.71;101735.41;5259824;28;20545;-69
2021/04/20 03:57:26;;;;;;;134.00;36.90;;;;;;;3.17;85.30;101731.13;5259939;28;20083;-68
2021/04/20 04:00:00;;;;;;;118.85;36.70;;;;;;;3.12;85.73;101740.81;5242966;28;20312;-67
2021/04/20 04:02:36;;;;;;;127.78;35.00;;;;;;;3.03;85.64;101729.97;5250858;28;20116;-69
2021/04/20 04:05:11;;;;;;;87.03;36.45;;;;;;;3.05;85.71;101729.03;5256848;28;20103;-69
2021/04/20 04:07:44;;;;;;;64.68;35.33;;;;;;;3.09;85.01;101737.50;5250023;28;20071;-68
2021/04/20 04:10:17;;;;;;;103.35;34.28;;;;;;;3.06;85.60;101735.03;5259920;28;20028;-68
2021/04/20 04:12:52;;;;;;;114.45;35.00;;;;;;;3.08;85.91;101736.69;5257571;28;20033;-68
2021/04/20 04:15:24;;;;;;;69.80;33.95;;;;;;;3.09;85.68;101732.34;5260078;28;20093;-68
2021/04/20 04:17:58;;;;;;;51.33;33.33;;;;;;;3.08;86.13;101733.25;5259223;28;20025;-67
2021/04/20 04:20:30;;;;;;;84.82;32.40;;;;;;;3.05;86.46;101734.19;5259877;28;20024;-67
2021/04/20 04:23:22;;;;;;;97.38;33.08;;;;;;;3.17;86.03;101738.88;5257953;28;20043;-68
2021/04/20 04:26:02;;;;;;;50.90;30.88;;;;;;;3.14;86.39;101733.00;5260483;28;20099;-67
2021/04/20 04:28:35;;;;;;;84.43;32.20;;;;;;;3.07;86.45;101734.13;5258316;28;20033;-68
2021/04/20 04:31:08;;;;;;;174.63;32.95;;;;;;;3.03;86.29;101740.31;5257652;28;20381;-68
2021/04/20 04:33:40;;;;;;;60.70;31.05;;;;;;;2.99;86.55;101736.19;5240890;28;20043;-68
2021/04/20 04:36:13;;;;;;;47.63;30.92;;;;;;;3.08;86.90;101739.25;5259919;28;20029;-67
2021/04/20 04:38:45;;;;;;;105.50;31.48;;;;;;;3.02;86.96;101741.25;5259889;28;20066;-68
2021/04/20 04:41:17;;;;;;;175.60;30.63;;;;;;;2.95;86.84;101726.84;5259887;28;20060;-68
2021/04/20 04:43:49;;;;;;;134.35;28.70;;;;;;;3.05;86.55;101738.53;5258344;28;20572;-68
2021/04/20 04:46:21;;;;;;;96.22;27.17;;;;;;;3.02;86.48;101741.25;5258023;28;20085;-68
2021/04/20 04:48:53;;;;;;;124.80;26.40;;;;;;;2.98;86.68;101742.25;5260386;28;20482;-68
2021/04/20 04:51:25;;;;;;;141.05;25.60;;;;;;;2.84;86.08;101733.31;5257972;28;20032;-69
2021/04/20 04:53:57;;;;;;;135.40;24.30;;;;;;;2.77;86.05;101736.19;5259489;28;20553;-67
2021/04/20 04:56:30;;;;;;;103.35;23.60;;;;;;;2.76;86.14;101739.66;5258154;28;20032;-68
2021/04/20 04:59:06;;;;;;;114.20;25.70;;;;;;;2.83;86.60;101741.09;5262428;28;20103;-67
2021/04/20 05:01:38;;;;;;;83.10;25.33;;;;;;;2.82;86.71;101749.78;5258657;28;20037;-68
2021/04/20 05:04:11;;;;;;;71.28;24.65;;;;;;;2.79;86.67;101742.97;5262302;28;20552;-68
2021/04/20 05:06:47;;;;;;;82.35;24.23;;;;;;;2.83;86.43;101741.09;5257768;28;20800;-67
2021/04/20 05:09:23;;;;;;;50.63;23.52;;;;;;;2.80;87.11;101742.06;5258722;28;20064;-67
2021/04/20 05:11:55;;;;;;;52.38;26.02;;;;;;;2.77;87.42;101743.94;5259467;28;20072;-68
2021/04/20 05:14:26;;;;;;;41.70;27.10;;;;;;;2.82;87.32;101747.19;5240130;28;20021;-68
2021/04/20 05:16:58;;;;;;;55.78;30.80;;;;;;;2.83;87.24;101754.03;5260689;28;20039;-68
2021/04/20 05:19:31;;;;;;;45.25;30.13;;;;;;;2.90;86.84;101743.41;5256415;28;20280;-67
2021/04/20 05:22:02;;;;;;;43.13;29.98;;;;;;;2.86;87.19;101752.19;5258524;28;20032;-68
2021/04/20 05:24:34;;;;;;;42.63;29.80;;;;;;;2.93;86.92;101755.38;5260507;28;20511;-68
2021/04/20 05:27:06;;;;;;;50.97;29.58;;;;;;;2.94;87.03;101751.88;5258426;28;20036;-68
2021/04/20 05:29:41;;;;;;;37.00;29.60;;;;;;;3.09;86.33;101751.28;5258058;28;20498;-68
2021/04/20 05:32:12;;;;;;;31.42;26.27;;;;;;;3.12;85.78;101755.53;5255979;28;20032;-68
2021/04/20 05:34:43;;;;;;;56.00;28.88;;;;;;;3.07;85.59;101752.25;5239024;28;20443;-69
2021/04/20 05:37:27;;;;;;;34.22;27.48;;;;;;;3.07;85.81;101750.53;5259219;28;20426;-68
2021/04/20 05:40:05;;;;;;;35.30;28.13;;;;;;;3.15;86.47;101756.25;5255962;28;20021;-68
2021/04/20 05:42:38;;;;;;;32.75;28.48;;;;;;;3.20;86.36;101756.06;5258415;28;20020;-68
2021/04/20 05:45:12;;;;;;;33.35;28.58;;;;;;;3.21;86.29;101747.38;5255123;28;20053;-68
2021/04/20 05:47:46;;;;;;;32.72;27.75;;;;;;;3.36;85.62;101761.47;5258513;28;20039;-68
2021/04/20 05:50:23;;;;;;;34.30;28.48;;;;;;;3.41;86.49;101752.63;5258856;28;20443;-68
2021/04/20 05:52:56;;;;;;;34.40;27.02;;;;;;;3.42;86.22;101753.47;5256332;28;20538;-68
2021/04/20 05:55:28;;;;;;;36.13;29.50;;;;;;;3.48;86.71;101752.34;5256156;28;20028;-68
2021/04/20 05:57:59;;;;;;;37.00;29.02;;;;;;;3.49;86.53;101749.72;5257664;28;20313;-67
2021/04/20 06:00:31;;;;;;;37.30;30.08;;;;;;;3.63;86.03;101741.38;5258816;28;20451;-68
2021/04/20 06:03:03;;;;;;;38.53;31.63;;;;;;;3.70;87.01;101752.31;5258003;28;20032;-68
2021/04/20 06:05:35;;;;;;;46.75;32.97;;;;;;;3.75;86.56;101750.38;5252328;28;20027;-68
2021/04/20 06:08:07;;;;;;;44.17;32.72;;;;;;;3.79;87.18;101751.94;5247591;28;20481;-68
2021/04/20 06:10:38;;;;;;;41.20;32.17;;;;;;;3.88;87.43;101759.34;5254150;28;20036;-68
2021/04/20 06:13:10;;;;;;;38.00;30.65;;;;;;;3.93;87.72;101759.97;5257654;28;20048;-68
2021/04/20 06:15:41;;;;;;;37.08;31.15;;;;;;;3.95;87.30;101758.19;5259953;28;20024;-68
2021/04/20 06:18:13;;;;;;;38.80;31.27;;;;;;;4.07;88.19;101756.81;5257906;28;20029;-68
2021/04/20 06:20:44;;;;;;;40.42;33.60;;;;;;;4.15;87.67;101765.09;5256453;28;20519;-67
2021/04/20 06:23:17;;;;;;;41.22;34.85;;;;;;;4.14;87.65;101753.88;5255492;28;20059;-68
2021/04/20 06:25:51;;;;;;;61.65;54.92;;;;;;;4.26;87.69;101762.88;5255233;28;20486;-68
2021/04/20 06:28:22;;;;;;;;;;;;;;;4.55;87.11;101765.94;5256488;28;20037;-68
2021/04/20 06:31:00;;;;;;;59.13;52.78;;;;;;;4.52;87.85;101766.09;5258317;28;19916;-67
2021/04/20 06:33:36;;;;;;;47.08;40.78;;;;;;;4.60;87.80;101771.78;5258611;28;20393;-68
2021/04/20 06:36:08;;;;;;;39.53;35.08;;;;;;;4.71;88.38;101776.47;5254549;28;20035;-69
2021/04/20 06:38:40;;;;;;;39.47;33.92;;;;;;;4.80;87.52;101779.47;5255432;28;20158;-68
2021/04/20 06:41:12;;;;;;;38.78;32.10;;;;;;;4.89;87.75;101780.84;5257716;28;20032;-68
2021/04/20 06:44:00;;;;;;;35.13;30.30;;;;;;;5.08;87.25;101767.84;5253488;28;20057;-68
2021/04/20 06:46:47;;;;;;;37.67;31.55;;;;;;;5.18;87.96;101766.47;5257249;28;20067;-68
2021/04/20 06:49:29;;;;;;;37.97;32.47;;;;;;;5.26;87.11;101772.13;5251224;28;20041;-68
2021/04/20 06:52:05;;;;;;;41.78;35.03;;;;;;;5.44;88.27;101760.03;5252388;28;20037;-68
2021/04/20 06:54:46;;;;;;;39.63;34.88;;;;;;;5.63;88.16;101764.34;5256176;28;20418;-67
2021/04/20 06:57:22;;;;;;;47.10;39.25;;;;;;;5.75;88.48;101753.31;5257661;28;20032;-71
2021/04/20 07:00:10;;;;;;;48.40;40.50;;;;;;;5.99;88.46;101762.53;5259557;28;20047;-70
2021/04/20 07:03:07;;;;;;;51.80;42.35;;;;;;;6.14;87.96;101758.31;5260981;28;20399;-70
2021/04/20 07:06:00;;;;;;;57.67;45.35;;;;;;;6.26;87.42;101760.28;5247243;28;20485;-68
2021/04/20 07:09:00;;;;;;;59.47;47.43;;;;;;;6.53;87.07;101762.34;5251541;28;20028;-68
2021/04/20 07:11:34;;;;;;;53.83;43.50;;;;;;;6.64;86.45;101761.78;5259301;28;20282;-68
2021/04/20 07:14:05;;;;;;;50.75;41.70;;;;;;;6.84;87.07;101761.53;5260826;28;20052;-68
2021/04/20 07:16:56;;;;;;;51.38;42.80;;;;;;;6.97;87.16;101769.50;5260769;28;20099;-68
2021/04/20 07:19:29;;;;;;;54.17;42.00;;;;;;;7.10;86.25;101772.28;5253560;28;20442;-69
2021/04/20 07:22:20;;;;;;;51.67;42.08;;;;;;;7.29;86.31;101773.78;5258487;28;20033;-68
2021/04/20 07:25:20;;;;;;;53.30;40.05;;;;;;;7.41;86.17;101771.41;5259308;28;20377;-68
2021/04/20 07:28:10;;;;;;;52.10;42.15;;;;;;;7.57;85.93;101767.81;5262249;28;20036;-69
2021/04/20 07:30:51;;;;;;;50.05;42.47;;;;;;;7.78;84.44;101764.94;5257553;28;20082;-69
2021/04/20 07:33:50;;;;;;;49.97;41.95;;;;;;;7.94;84.39;101757.03;5257115;28;20021;-67
2021/04/20 07:36:41;;;;;;;51.67;42.63;;;;;;;8.08;84.36;101753.63;5257516;28;20032;-68
2021/04/20 07:39:19;;;;;;;48.80;40.45;;;;;;;8.26;83.02;101765.56;5259927;28;20491;-68
2021/04/20 07:42:07;;;;;;;50.50;40.55;;;;;;;8.47;83.71;101760.81;5259026;28;20509;-68
2021/04/20 07:44:40;;;;;;;53.13;41.47;;;;;;;8.53;82.81;101758.69;5257415;28;20139;-68
2021/04/20 07:47:14;;;;;;;49.97;42.17;;;;;;;8.72;82.13;101770.63;5239866;28;20159;-69
2021/04/20 07:50:08;;;;;;;54.60;42.72;;;;;;;8.90;82.52;101772.09;5254525;28;20051;-69
2021/04/20 07:53:08;;;;;;;56.08;45.85;;;;;;;9.11;82.18;101774.25;5223363;28;20119;-69
2021/04/20 07:55:55;;;;;;;53.15;45.00;;;;;;;9.31;81.51;101772.97;5255137;28;20033;-68
2021/04/20 07:58:33;;;;;;;54.95;46.25;;;;;;;9.54;81.45;101772.31;5236327;28;20311;-69
2021/04/20 08:01:32;;;;;;;58.90;47.83;;;;;;;9.73;80.85;101772.78;5253957;28;20538;-68
2021/04/20 08:04:11;;;;;;;59.75;47.25;;;;;;;9.76;80.11;101766.50;5252669;28;20539;-68
2021/04/20 08:06:46;;;;;;;56.75;45.95;;;;;;;10.05;78.75;101766.34;5253380;28;20028;-69
2021/04/20 08:09:25;;;;;;;65.03;50.05;;;;;;;10.21;78.92;101770.41;5254547;28;20897;-69
2021/04/20 08:12:26;;;;;;;70.47;51.80;;;;;;;10.35;77.84;101759.03;5257087;28;20056;-69
2021/04/20 08:15:13;;;;;;;62.15;49.97;;;;;;;10.60;77.48;101760.75;5254667;28;20045;-69
2021/04/20 08:17:52;;;;;;;55.78;46.45;;;;;;;10.66;76.09;101749.03;5238679;28;20409;-69
2021/04/20 08:20:25;;;;;;;55.20;44.40;;;;;;;10.87;76.98;101758.00;5253780;28;20047;-69
2021/04/20 08:22:57;;;;;;;;;;;;;;;11.13;77.88;101755.25;5260329;28;20591;-69
2021/04/20 08:25:42;;;;;;;53.65;44.55;;;;;;;11.15;76.25;101753.38;5249542;28;19922;-69
2021/04/20 08:28:37;;;;;;;49.05;43.28;;;;;;;11.44;75.80;101757.31;5256754;28;20399;-69
2021/04/20 08:31:23;;;;;;;54.53;44.33;;;;;;;11.61;75.06;101750.81;5254960;28;20123;-70
2021/04/20 08:34:01;;;;;;;50.90;43.90;;;;;;;11.64;72.86;101747.97;5255037;28;20029;-70
2021/04/20 08:37:06;;;;;;;49.97;43.13;;;;;;;11.86;73.47;101749.00;5252784;28;20024;-69
2021/04/20 08:39:47;;;;;;;51.00;42.55;;;;;;;11.92;72.16;101746.75;5234626;28;20494;-69
2021/04/20 08:42:43;;;;;;;47.58;40.47;;;;;;;12.12;74.03;101749.63;5253343;28;20115;-69
2021/04/20 08:45:23;;;;;;;51.10;43.03;;;;;;;12.28;72.46;101752.75;5255510;28;20572;-69
2021/04/20 08:48:07;;;;;;;47.63;40.30;;;;;;;12.47;71.67;101753.97;5229869;28;20029;-69
2021/04/20 08:50:44;;;;;;;47.28;40.13;;;;;;;12.66;70.61;101747.13;5255637;28;20212;-69
2021/04/20 08:53:33;;;;;;;47.85;40.50;;;;;;;12.78;70.41;101750.56;5254424;28;20152;-70
2021/04/20 08:56:12;;;;;;;45.55;37.90;;;;;;;12.95;69.58;101751.00;5256431;28;20540;-70
2021/04/20 08:58:58;;;;;;;43.00;37.95;;;;;;;13.02;68.01;101754.81;5254477;28;20679;-70
2021/04/20 09:01:47;;;;;;;43.47;37.63;;;;;;;13.21;67.97;101743.63;5254743;28;20060;-69
2021/04/20 09:04:37;;;;;;;42.67;37.85;;;;;;;13.25;69.58;101738.03;5256314;28;20416;-69
2021/04/20 09:07:31;;;;;;;46.15;38.92;;;;;;;13.51;67.61;101748.22;5252484;28;20420;-69
2021/04/20 09:10:09;;;;;;;44.95;38.00;;;;;;;13.53;65.66;101746.31;5256543;28;20115;-69
2021/04/20 09:12:45;;;;;;;48.65;42.38;;;;;;;13.76;65.73;101750.47;5258825;28;20031;-69
2021/04/20 09:15:19;;;;;;;48.33;41.72;;;;;;;13.91;66.27;101750.16;5254268;28;20039;-69
2021/04/20 09:17:51;;;;;;;56.30;44.40;;;;;;;14.16;63.63;101743.63;5255734;28;20035;-69
2021/04/20 09:20:37;;;;;;;53.05;42.20;;;;;;;14.32;65.64;101742.19;5253671;28;20285;-69
2021/04/20 09:23:46;;;;;;;48.53;39.83;;;;;;;14.50;63.54;101746.84;5254114;28;20052;-69
2021/04/20 09:26:26;;;;;;;49.95;40.65;;;;;;;14.46;59.42;101737.50;5233997;28;20076;-69
2021/04/20 09:29:11;;;;;;;51.83;40.35;;;;;;;14.55;60.20;101739.41;5253216;28;20025;-70
2021/04/20 09:31:56;;;;;;;50.33;39.25;;;;;;;14.52;58.25;101737.84;5249674;28;20462;-69
2021/04/20 09:34:34;;;;;;;44.30;37.45;;;;;;;14.48;57.92;101741.69;5252774;28;20351;-69
2021/04/20 09:37:06;;;;;;;48.53;37.80;;;;;;;14.77;58.19;101741.81;5252387;28;20043;-69
2021/04/20 09:39:42;;;;;;;44.60;37.47;;;;;;;15.05;59.30;101744.63;5253916;28;20563;-69
2021/04/20 09:42:15;;;;;;;45.03;36.72;;;;;;;14.98;57.29;101744.34;5255860;28;20089;-69
2021/04/20 09:45:22;;;;;;;39.03;33.95;;;;;;;15.12;58.00;101740.47;5254962;28;20064;-69
2021/04/20 09:48:17;;;;;;;43.60;34.55;;;;;;;15.42;59.20;101746.56;5252080;28;20024;-69
2021/04/20 09:51:08;;;;;;;35.83;31.63;;;;;;;15.48;57.95;101746.84;5248279;28;20057;-69
2021/04/20 09:53:54;;;;;;;35.85;31.25;;;;;;;15.42;55.47;101751.84;5254657;28;20039;-68
2021/04/20 09:56:37;;;;;;;29.25;25.58;;;;;;;15.62;55.08;101742.97;5254663;28;20029;-69
2021/04/20 09:59:23;;;;;;;;;;;;;;;15.85;57.49;101743.50;5255681;28;20029;-70
2021/04/20 10:01:57;;;;;;;26.80;23.55;;;;;;;15.85;53.08;101734.75;5253893;28;19916;-69
2021/04/20 10:04:40;;;;;;;29.65;25.83;;;;;;;15.99;55.33;101735.13;5256789;28;20031;-69
2021/04/20 10:07:29;;;;;;;34.53;29.70;;;;;;;15.92;55.85;101730.56;5252386;28;20043;-69
2021/04/20 10:10:14;;;;;;;34.70;31.00;;;;;;;15.79;54.57;101723.75;5255047;28;20078;-69
2021/04/20 10:13:25;;;;;;;38.72;31.80;;;;;;;16.11;55.64;101737.59;5256449;28;20020;-69
2021/04/20 10:16:24;;;;;;;32.72;29.05;;;;;;;16.37;55.11;101741.25;5250250;28;20028;-68
2021/04/20 10:19:24;;;;;;;30.75;27.38;;;;;;;16.65;53.93;101734.13;5257192;28;20033;-69
2021/04/20 10:22:23;;;;;;;29.50;26.40;;;;;;;16.76;53.02;101739.25;5252447;28;20025;-69
2021/04/20 10:25:18;;;;;;;27.92;24.92;;;;;;;16.73;50.64;101739.53;5254705;28;20033;-69
2021/04/20 10:27:57;;;;;;;25.17;22.17;;;;;;;16.58;48.80;101735.69;5259731;28;20033;-69
2021/04/20 10:30:37;;;;;;;22.65;20.25;;;;;;;16.52;48.65;101731.03;5257364;28;20037;-69
2021/04/20 10:33:11;;;;;;;25.00;21.95;;;;;;;16.97;49.45;101724.91;5261111;28;20029;-69
2021/04/20 10:35:45;;;;;;;24.55;20.95;;;;;;;16.89;46.35;101719.53;5259487;28;20395;-68
2021/04/20 10:38:17;;;;;;;24.85;18.77;;;;;;;17.40;46.88;101720.66;5257813;28;20029;-68
2021/04/20 10:40:53;;;;;;;22.90;20.45;;;;;;;17.11;44.67;101719.09;5263574;28;20028;-68
2021/04/20 10:43:30;;;;;;;22.17;19.80;;;;;;;17.13;44.38;101724.25;5259390;28;20507;-69
2021/04/20 10:46:09;;;;;;;23.23;20.35;;;;;;;17.28;44.13;101709.50;5254810;28;20036;-69
2021/04/20 10:48:45;;;;;;;21.20;19.00;;;;;;;17.22;45.00;101715.38;5257132;28;20398;-69
2021/04/20 10:51:18;;;;;;;21.98;19.67;;;;;;;17.36;44.23;101704.25;5260869;28;20151;-69
2021/04/20 10:53:49;;;;;;;21.92;19.40;;;;;;;17.78;44.43;101703.59;5249992;28;20025;-69
2021/04/20 10:56:22;;;;;;;23.63;20.40;;;;;;;17.86;43.17;101703.63;5253282;28;20037;-70
2021/04/20 10:58:57;;;;;;;26.88;21.40;;;;;;;17.85;43.32;101703.78;5235023;28;20028;-69
2021/04/20 11:01:30;;;;;;;22.60;20.25;;;;;;;18.05;42.48;101697.28;5258282;28;20033;-69
2021/04/20 11:04:05;;;;;;;25.60;22.00;;;;;;;17.87;42.98;101696.50;5263041;28;20024;-69
2021/04/20 11:07:34;;;;;;;30.30;24.23;;;;;;;17.83;44.51;101703.94;5254153;28;20123;-69
2021/04/20 11:10:08;;;;;;;28.92;24.60;;;;;;;17.78;42.48;101692.16;5181490;28;20048;-69
2021/04/20 11:12:50;;;;;;;23.95;21.35;;;;;;;18.01;43.60;101690.63;5178526;28;20034;-69
2021/04/20 11:15:24;;;;;;;24.58;21.95;;;;;;;18.04;41.92;101694.78;5228354;28;20033;-69
2021/04/20 11:17:55;;;;;;;24.27;21.67;;;;;;;18.08;41.12;101682.88;5258671;28;20017;-69
2021/04/20 11:20:42;;;;;;;26.23;23.52;;;;;;;17.97;42.21;101684.78;5256717;28;20036;-69
2021/04/20 11:23:24;;;;;;;25.40;21.23;;;;;;;17.85;40.34;101680.75;5256472;28;20697;-69
2021/04/20 11:26:04;;;;;;;24.73;21.98;;;;;;;18.02;43.20;101683.50;5248657;28;20047;-69
2021/04/20 11:28:41;;;;;;;24.63;21.08;;;;;;;18.21;41.27;101675.28;5262775;28;20025;-69
2021/04/20 11:31:18;;;;;;;33.33;20.42;;;;;;;18.44;40.43;101676.34;5247340;28;20907;-70
2021/04/20 11:33:55;;;;;;;54.25;22.70;;;;;;;18.39;39.20;101665.41;5262991;28;20028;-69
2021/04/20 11:36:33;;;;;;;22.67;19.27;;;;;;;18.76;40.21;101666.03;5252809;28;20043;-70
2021/04/20 11:39:08;;;;;;;22.05;19.75;;;;;;;18.58;38.78;101664.28;5253192;28;20029;-69
2021/04/20 11:41:45;;;;;;;22.35;19.90;;;;;;;18.47;40.50;101667.25;5251432;28;20108;-70
2021/04/20 11:44:20;;;;;;;20.13;18.02;;;;;;;19.00;37.72;101659.91;5240609;28;20518;-69
2021/04/20 11:46:52;;;;;;;24.17;17.92;;;;;;;19.16;38.05;101663.38;5251933;28;20057;-69
2021/04/20 11:49:28;;;;;;;20.27;18.17;;;;;;;18.79;37.90;101663.88;5252222;28;20041;-70
2021/04/20 11:52:00;;;;;;;19.85;16.65;;;;;;;18.51;37.48;101665.94;5251460;28;20286;-70
2021/04/20 11:54:36;;;;;;;19.97;16.70;;;;;;;18.36;38.27;101648.97;5237680;28;20596;-69
2021/04/20 11:57:08;;;;;;;19.83;17.83;;;;;;;18.09;39.40;101660.66;5255156;28;20093;-69
2021/04/20 11:59:39;;;;;;;21.42;19.23;;;;;;;17.97;38.84;101660.94;5227093;28;20213;-70
2021/04/20 12:02:11;;;;;;;19.93;17.73;;;;;;;18.29;37.44;101661.22;5250986;28;20036;-70